Time;durP1;ratioP1;P1;durP2;ratioP2;P2;SDS_P1;SDS_P2;PMS_P1;PMS_P2;Temp;Humidity;BMP_temperature;BMP_pressure;BME280_temperature;BME280_humidity;BME280_pressure;Samples;Min_cycle;Max_cycle;Signal;HPM_P1;HPM_P2
2021/12/21 00:00:15;;;;;;;4.25;3.13;;;;;;;-3.26;87.59;90819.72;5070492;28;20028;-66
2021/12/21 00:02:42;;;;;;;7.25;3.83;;;;;;;-3.36;87.77;90813.28;5052364;28;20514;-66
2021/12/21 00:05:09;;;;;;;4.72;3.38;;;;;;;-3.28;86.40;90813.97;5070359;28;20080;-66
2021/12/21 00:07:35;;;;;;;3.42;2.95;;;;;;;-3.26;87.53;90822.31;5070445;28;20024;-66
2021/12/21 00:10:01;;;;;;;5.47;3.42;;;;;;;-3.22;86.86;90826.03;5070345;28;20051;-67
2021/12/21 00:12:30;;;;;;;8.68;3.78;;;;;;;-3.18;88.67;90829.75;5070413;28;20101;-66
2021/12/21 00:25:19;;;;;;;3.33;2.95;;;;;;;-3.20;97.92;90837.00;5074414;28;20055;-66
2021/12/21 00:27:47;;;;;;;4.38;3.50;;;;;;;-3.24;98.36;90836.66;5074122;28;20827;-66
2021/12/21 00:30:13;;;;;;;6.05;3.55;;;;;;;-3.24;97.99;90841.88;5073870;28;20031;-67
2021/12/21 00:32:38;;;;;;;10.27;6.20;;;;;;;-3.18;96.49;90834.97;5073916;28;20021;-67
2021/12/21 00:35:05;;;;;;;4.93;3.95;;;;;;;-3.06;96.88;90848.75;5073932;28;20021;-66
2021/12/21 00:37:31;;;;;;;5.40;3.20;;;;;;;-3.19;96.38;90834.16;5073912;28;20025;-66
2021/12/21 00:39:57;;;;;;;4.70;3.42;;;;;;;-3.03;96.50;90848.28;5073743;28;20447;-67
2021/12/21 00:42:22;;;;;;;4.68;2.92;;;;;;;-2.95;97.10;90853.16;5073875;28;20107;-66
2021/12/21 00:44:48;;;;;;;7.90;5.30;;;;;;;-2.89;100.00;90852.22;5073675;28;20462;-67
2021/12/21 00:47:16;;;;;;;8.02;4.43;;;;;;;-2.91;100.00;90850.88;5073753;28;20032;-66
2021/12/21 00:49:45;;;;;;;5.75;4.15;;;;;;;-3.18;100.00;90855.75;5241563;22;20040;-78
2021/12/21 00:52:15;;;;;;;8.73;4.57;;;;;;;-3.36;100.00;90852.28;5094178;28;20023;-78
2021/12/21 00:54:41;;;;;;;7.40;5.07;;;;;;;-3.37;100.00;90852.50;5094167;28;20031;-79
2021/12/21 00:57:08;;;;;;;6.35;4.30;;;;;;;-3.52;100.00;90854.78;5092684;28;20039;-79
2021/12/21 00:59:34;;;;;;;6.05;4.80;;;;;;;-3.57;100.00;90863.25;5093927;28;20501;-78
2021/12/21 01:02:00;;;;;;;9.73;6.10;;;;;;;-3.53;100.00;90856.59;5093943;28;20036;-78
2021/12/21 01:04:33;;;;;;;6.18;4.55;;;;;;;-3.50;100.00;90857.94;5093899;28;20120;-78
2021/12/21 01:12:14;;;;;;;6.93;5.03;;;;;;;-3.55;100.00;90860.44;5093975;28;20088;-78
2021/12/21 01:15:12;;;;;;;10.35;6.22;;;;;;;-3.53;100.00;90858.38;5093572;28;20519;-78
2021/12/21 01:20:30;;;;;;;6.95;4.75;;;;;;;-3.43;100.00;90838.63;5093811;28;20490;-79
2021/12/21 01:28:12;;;;;;;9.20;5.10;;;;;;;-3.22;100.00;90858.03;5093521;28;20107;-78
2021/12/21 01:35:34;;;;;;;7.72;5.00;;;;;;;-3.06;100.00;90856.56;5093496;28;20032;-78
2021/12/21 01:38:21;;;;;;;5.47;3.60;;;;;;;-3.07;100.00;90868.78;5093159;28;20463;-79
2021/12/21 01:51:15;;;;;;;7.18;4.30;;;;;;;-3.08;100.00;90856.00;5092747;28;20096;-78
2021/12/21 01:53:41;;;;;;;5.38;4.65;;;;;;;-3.13;98.97;90848.09;5092910;28;20107;-78
2021/12/21 01:56:09;;;;;;;4.32;3.53;;;;;;;-3.19;96.22;90843.78;5092826;28;20405;-78
2021/12/21 01:58:37;;;;;;;4.78;3.50;;;;;;;-3.26;93.79;90845.72;5092829;28;20032;-78
2021/12/21 02:01:08;;;;;;;4.13;3.40;;;;;;;-3.39;90.93;90831.94;5091251;28;20046;-79
2021/12/21 02:03:34;;;;;;;3.90;3.20;;;;;;;-3.32;90.83;90852.59;5092617;28;20127;-79
2021/12/21 02:06:00;;;;;;;4.40;3.33;;;;;;;-3.39;90.69;90852.75;5092525;28;20024;-78
2021/12/21 02:08:26;;;;;;;6.03;3.70;;;;;;;-3.41;90.10;90854.78;5092512;28;20032;-78
2021/12/21 02:10:52;;;;;;;6.68;3.33;;;;;;;-3.51;90.80;90845.94;5092433;28;20032;-79
2021/12/21 02:13:17;;;;;;;3.63;3.33;;;;;;;-3.46;90.40;90852.06;5092486;28;20382;-78
2021/12/21 02:15:43;;;;;;;4.57;3.25;;;;;;;-3.46;92.10;90844.28;5092473;28;20603;-78
2021/12/21 02:18:31;;;;;;;4.75;2.03;;;;;;;-3.40;93.75;90850.38;5092466;28;20032;-78
2021/12/21 02:20:59;;;;;;;6.00;3.85;;;;;;;-3.36;93.89;90852.28;5092214;28;20034;-78
2021/12/21 02:23:35;;;;;;;3.20;2.85;;;;;;;-3.28;93.41;90852.97;5092328;28;20032;-78
2021/12/21 02:26:51;;;;;;;3.58;3.03;;;;;;;-3.30;94.28;90847.22;5092243;28;20020;-79
2021/12/21 02:29:09;;;;;;;4.03;3.00;;;;;;;-3.38;93.40;90856.91;5084654;28;20040;-78
2021/12/21 02:31:33;;;;;;;7.07;3.90;;;;;;;-3.36;92.16;90857.47;5092042;28;20558;-78
2021/12/21 02:33:59;;;;;;;8.25;6.18;;;;;;;-3.44;92.39;90847.44;5092131;28;20035;-78
2021/12/21 02:36:24;;;;;;;16.33;6.85;;;;;;;-3.56;92.51;90854.44;5092025;28;20116;-79
2021/12/21 02:38:50;;;;;;;9.80;4.07;;;;;;;-3.54;94.34;90859.41;5091920;28;20580;-78
2021/12/21 02:41:15;;;;;;;6.47;4.57;;;;;;;-3.49;95.00;90854.31;5091921;28;20026;-78
2021/12/21 02:43:41;;;;;;;8.77;5.10;;;;;;;-3.49;94.74;90852.50;5091225;28;20047;-78
2021/12/21 02:46:07;;;;;;;8.75;5.20;;;;;;;-3.59;98.69;90843.72;5091868;28;20481;-78
2021/12/21 02:48:33;;;;;;;18.80;9.32;;;;;;;-3.36;98.79;90854.88;5091895;28;20035;-79
2021/12/21 02:51:01;;;;;;;13.82;8.40;;;;;;;-3.30;99.15;90865.41;5091528;28;20048;-78
2021/12/21 02:53:27;;;;;;;6.78;4.70;;;;;;;-3.26;97.43;90858.72;5091785;28;20040;-77
2021/12/21 02:55:53;;;;;;;4.68;4.13;;;;;;;-3.26;97.29;90866.53;5091733;28;20028;-78
2021/12/21 02:58:18;;;;;;;7.13;4.75;;;;;;;-3.22;96.37;90868.44;5091707;28;20047;-78
2021/12/21 03:00:46;;;;;;;5.22;4.00;;;;;;;-3.30;96.92;90870.63;5091862;28;20035;-78
2021/12/21 03:03:14;;;;;;;5.70;4.60;;;;;;;-3.29;97.96;90869.59;5091620;28;20036;-79
2021/12/21 03:05:49;;;;;;;6.07;3.70;;;;;;;-3.25;97.71;90876.72;5091572;28;20035;-78
2021/12/21 03:08:24;;;;;;;6.72;3.90;;;;;;;-3.28;97.43;90873.78;5091534;28;20032;-78
2021/12/21 03:16:13;;;;;;;6.82;4.07;;;;;;;-3.58;97.67;90876.47;5091689;28;20055;-78
2021/12/21 03:18:38;;;;;;;12.15;6.70;;;;;;;-3.66;96.07;90873.19;5091399;28;20509;-79
2021/12/21 03:21:04;;;;;;;15.65;5.55;;;;;;;-3.63;92.54;90879.75;5091243;28;20083;-79
2021/12/21 03:23:29;;;;;;;8.13;4.78;;;;;;;-3.68;92.41;90887.44;5091347;28;20103;-78
2021/12/21 03:25:55;;;;;;;3.17;2.88;;;;;;;-3.72;92.71;90879.28;5089894;28;20043;-77
2021/12/21 03:28:23;;;;;;;5.13;3.50;;;;;;;-3.72;94.71;90875.91;5091327;28;20501;-78
2021/12/21 03:30:49;;;;;;;4.20;2.67;;;;;;;-3.86;95.00;90885.72;5091222;28;20035;-78
2021/12/21 03:33:14;;;;;;;5.32;3.55;;;;;;;-3.98;96.99;90897.88;5089868;28;20623;-78
2021/12/21 03:35:40;;;;;;;5.18;3.55;;;;;;;-4.10;100.00;90889.25;5091242;28;20513;-79
2021/12/21 03:38:05;;;;;;;3.85;3.05;;;;;;;-4.18;100.00;90899.97;5091198;28;20028;-78
2021/12/21 03:40:33;;;;;;;5.28;3.78;;;;;;;-4.25;100.00;90887.88;5091100;28;20036;-79
2021/12/21 03:43:00;;;;;;;6.38;3.95;;;;;;;-4.27;100.00;90902.88;5091100;28;20043;-77
2021/12/21 03:45:28;;;;;;;6.32;4.45;;;;;;;-4.28;100.00;90896.09;5090987;28;20127;-77
2021/12/21 03:47:53;;;;;;;5.15;3.63;;;;;;;-4.30;100.00;90890.34;5091427;28;20051;-77
2021/12/21 03:50:21;;;;;;;3.50;3.00;;;;;;;-4.09;100.00;90902.06;5090798;28;20044;-76
2021/12/21 03:52:46;;;;;;;5.90;4.07;;;;;;;-4.07;99.46;90902.63;5090980;28;20085;-77
2021/12/21 03:55:13;;;;;;;8.32;5.05;;;;;;;-4.12;97.05;90907.66;5094660;28;20028;-77
2021/12/21 03:57:39;;;;;;;2.15;1.70;;;;;;;-4.08;92.93;90908.81;5095170;28;20552;-77
2021/12/21 04:00:09;;;;;;;3.10;2.70;;;;;;;-4.06;90.27;90908.59;5095040;28;20032;-77
2021/12/21 04:02:34;;;;;;;4.75;2.90;;;;;;;-4.12;89.93;90907.66;5095141;28;20123;-77
2021/12/21 04:05:00;;;;;;;3.92;2.78;;;;;;;-4.15;89.25;90915.91;5094914;28;20127;-77
2021/12/21 04:07:26;;;;;;;4.85;3.53;;;;;;;-4.01;88.06;90919.91;5095035;28;20034;-78
2021/12/21 04:09:52;;;;;;;3.45;2.85;;;;;;;-4.17;90.49;90930.91;5094807;28;20115;-77
2021/12/21 04:12:18;;;;;;;3.88;2.95;;;;;;;-4.27;91.01;90925.44;5094796;28;20040;-78
2021/12/21 04:14:44;;;;;;;4.07;2.85;;;;;;;-4.35;91.35;90928.38;5094836;28;20047;-77
2021/12/21 04:17:16;;;;;;;4.75;2.47;;;;;;;-4.36;90.51;90940.56;5094834;28;20406;-78
2021/12/21 04:19:42;;;;;;;4.50;3.30;;;;;;;-4.47;90.30;90940.50;5094736;28;20068;-77
2021/12/21 04:22:08;;;;;;;3.42;2.63;;;;;;;-4.52;90.31;90943.75;5094652;28;20450;-78
2021/12/21 04:24:33;;;;;;;4.97;3.00;;;;;;;-4.65;90.79;90934.31;5094604;28;20032;-78
2021/12/21 04:26:59;;;;;;;5.53;3.03;;;;;;;-4.68;90.46;90937.34;5094497;28;20024;-77
2021/12/21 04:29:24;;;;;;;2.58;2.10;;;;;;;-4.72;87.59;90918.03;5094472;28;20032;-77
2021/12/21 04:31:50;;;;;;;3.42;2.65;;;;;;;-4.68;86.98;90923.59;5094542;28;20479;-77
2021/12/21 04:34:16;;;;;;;3.53;2.50;;;;;;;-4.56;86.24;90930.44;5094438;28;20024;-78
2021/12/21 04:36:44;;;;;;;4.22;2.80;;;;;;;-4.59;85.16;90936.03;5094393;28;20051;-77
2021/12/21 04:39:19;;;;;;;2.75;2.17;;;;;;;-4.62;85.24;90930.50;5094239;28;20184;-77
2021/12/21 04:41:45;;;;;;;2.20;2.00;;;;;;;-4.67;84.65;90935.56;5093029;28;20043;-78
2021/12/21 04:44:11;;;;;;;2.20;2.00;;;;;;;-4.65;83.50;90939.50;5094152;28;20032;-77
2021/12/21 04:46:36;;;;;;;17.20;7.82;;;;;;;-4.76;83.23;90931.66;5094114;28;20106;-77
2021/12/21 04:49:02;;;;;;;3.70;3.05;;;;;;;-4.82;83.57;90941.91;5092573;28;20047;-77
2021/12/21 04:51:27;;;;;;;3.47;2.35;;;;;;;-4.74;82.75;90946.00;5094006;28;20046;-77
2021/12/21 04:53:53;;;;;;;2.35;1.98;;;;;;;-4.79;82.70;90943.25;5094042;28;20043;-77
2021/12/21 04:56:18;;;;;;;4.60;3.28;;;;;;;-4.90;82.82;90944.75;5094084;28;20069;-77
2021/12/21 04:58:44;;;;;;;3.97;3.20;;;;;;;-4.91;82.94;90943.19;5093970;28;20063;-77
2021/12/21 05:01:09;;;;;;;6.95;4.95;;;;;;;-4.76;82.21;90958.41;5093980;28;20039;-77
2021/12/21 05:03:35;;;;;;;6.93;4.70;;;;;;;-4.75;82.10;90954.78;5093920;28;20503;-77
2021/12/21 05:06:00;;;;;;;6.25;2.80;;;;;;;-4.84;83.27;90956.09;5092798;28;20520;-77
2021/12/21 05:08:31;;;;;;;3.38;2.58;;;;;;;-4.81;82.23;90945.28;5093800;28;20106;-77
2021/12/21 05:11:01;;;;;;;2.88;2.58;;;;;;;-4.86;83.89;90963.31;5093681;28;20125;-80
2021/12/21 05:13:28;;;;;;;4.68;2.30;;;;;;;-4.92;85.10;90964.16;5093707;28;20032;-78
2021/12/21 05:15:54;;;;;;;9.07;5.50;;;;;;;-4.97;85.69;90956.22;5093721;28;20045;-77
2021/12/21 05:18:21;;;;;;;5.93;3.80;;;;;;;-4.93;85.63;90960.78;5092327;28;20115;-77
2021/12/21 05:20:46;;;;;;;4.00;2.60;;;;;;;-4.84;85.77;90969.06;5093460;28;20040;-77
2021/12/21 05:23:12;;;;;;;6.35;3.67;;;;;;;-4.93;85.90;90968.56;5093508;28;20043;-77
2021/12/21 05:25:39;;;;;;;3.28;2.53;;;;;;;-4.82;85.86;90974.84;5093400;28;20036;-77
2021/12/21 05:28:06;;;;;;;2.65;2.40;;;;;;;-4.82;86.64;90967.84;5093428;28;20071;-77
2021/12/21 05:30:34;;;;;;;3.90;2.53;;;;;;;-4.82;87.57;90977.44;5093304;28;20050;-77
2021/12/21 05:33:00;;;;;;;3.75;2.72;;;;;;;-4.88;87.13;90979.09;5093346;28;20036;-76
2021/12/21 05:35:26;;;;;;;2.60;2.25;;;;;;;-5.01;89.13;90978.44;5093314;28;20042;-77
2021/12/21 05:37:57;;;;;;;3.58;2.03;;;;;;;-5.01;88.91;90981.81;5091805;28;20067;-76
2021/12/21 05:40:30;;;;;;;4.32;3.00;;;;;;;-5.07;89.29;90987.03;5093128;28;20120;-77
2021/12/21 05:42:55;;;;;;;3.92;3.38;;;;;;;-5.08;88.50;90983.66;5093186;28;20036;-77
2021/12/21 05:45:21;;;;;;;4.70;4.00;;;;;;;-5.05;87.98;90988.41;5093091;28;20044;-77
2021/12/21 05:47:46;;;;;;;3.35;2.38;;;;;;;-5.07;87.78;90981.84;5093058;28;20032;-77
2021/12/21 05:50:16;;;;;;;4.53;2.45;;;;;;;-4.80;88.14;90988.38;5092736;28;20127;-77
2021/12/21 05:52:42;;;;;;;3.78;2.45;;;;;;;-4.80;88.44;90990.19;5092909;28;20166;-77
2021/12/21 05:55:08;;;;;;;4.43;2.40;;;;;;;-4.84;88.56;90997.63;5092908;28;20093;-77
2021/12/21 05:57:35;;;;;;;7.93;5.13;;;;;;;-4.90;88.81;90982.88;5092853;28;20036;-76
2021/12/21 06:00:00;;;;;;;5.60;4.25;;;;;;;-4.93;89.62;90993.69;5092724;28;20417;-76
2021/12/21 06:02:26;;;;;;;10.82;5.45;;;;;;;-4.85;89.17;90994.22;5092660;28;20036;-77
2021/12/21 06:04:52;;;;;;;6.45;4.13;;;;;;;-4.86;87.87;90986.66;5092615;28;20068;-78
2021/12/21 06:07:17;;;;;;;7.88;5.47;;;;;;;-4.79;86.12;90989.97;5092454;28;20036;-77
2021/12/21 06:09:46;;;;;;;6.65;5.30;;;;;;;-4.71;84.85;90978.53;5092461;28;20028;-77
2021/12/21 06:15:08;;;;;;;3.35;2.45;;;;;;;-4.18;82.66;91001.28;5092940;28;20533;-78
2021/12/21 06:25:40;;;;;;;5.63;4.20;;;;;;;-3.99;78.63;90997.63;5092299;28;20036;-77
2021/12/21 06:28:08;;;;;;;8.95;5.68;;;;;;;-4.00;79.92;91015.00;5092380;28;20036;-77
2021/12/21 06:30:35;;;;;;;13.82;7.57;;;;;;;-3.93;80.91;91009.75;5092861;28;20052;-78
2021/12/21 06:33:01;;;;;;;4.25;3.53;;;;;;;-3.79;80.92;91016.34;5100773;28;20040;-77
2021/12/21 06:35:27;;;;;;;7.55;4.15;;;;;;;-3.76;80.68;91031.50;5103095;28;20152;-77
2021/12/21 06:37:52;;;;;;;4.85;3.63;;;;;;;-3.77;80.47;91039.53;5101689;28;20044;-77
2021/12/21 06:40:19;;;;;;;4.53;3.20;;;;;;;-3.59;79.46;91042.09;5101961;28;20036;-77
2021/12/21 06:42:47;;;;;;;6.03;4.22;;;;;;;-3.55;78.91;91039.81;5092721;28;20063;-77
2021/12/21 06:45:26;;;;;;;4.93;4.22;;;;;;;-3.54;78.53;91038.81;5092094;28;20036;-77
2021/12/21 06:53:20;;;;;;;4.47;3.13;;;;;;;-3.70;78.48;91053.22;5091829;28;20035;-77
2021/12/21 06:55:46;;;;;;;8.18;4.57;;;;;;;-3.69;78.53;91053.00;5091866;28;20024;-77
2021/12/21 06:58:11;;;;;;;3.30;2.83;;;;;;;-3.83;79.71;91061.19;5091811;28;20119;-77
2021/12/21 07:00:37;;;;;;;5.65;3.17;;;;;;;-3.83;80.88;91071.56;5091630;28;20032;-77
2021/12/21 07:03:03;;;;;;;17.33;9.68;;;;;;;-3.86;81.84;91067.63;5091559;28;20089;-77
2021/12/21 07:05:29;;;;;;;9.88;6.47;;;;;;;-3.77;80.84;91073.31;5091550;28;20035;-77
2021/12/21 07:07:56;;;;;;;6.90;5.45;;;;;;;-3.81;81.42;91085.94;5091792;28;20163;-77
2021/12/21 07:10:25;;;;;;;7.38;5.72;;;;;;;-3.69;82.75;91088.59;5093785;28;20032;-77
2021/12/21 07:20:27;;;;;;;13.10;6.53;;;;;;;-3.61;82.30;91070.13;5091240;28;20036;-77
2021/12/21 07:22:52;;;;;;;5.50;3.50;;;;;;;-3.33;81.37;91080.69;5089991;28;20043;-77
2021/12/21 07:25:18;;;;;;;8.38;5.35;;;;;;;-3.19;77.34;91091.72;5091215;28;20044;-77
2021/12/21 07:27:43;;;;;;;9.05;6.03;;;;;;;-3.37;75.54;91102.97;5091190;28;20060;-77
2021/12/21 07:30:09;;;;;;;11.15;6.53;;;;;;;-3.37;77.84;91097.78;5090869;28;20043;-77
2021/12/21 07:32:35;;;;;;;26.70;15.23;;;;;;;-3.38;77.77;91100.59;5091276;28;20036;-77
2021/12/21 07:35:02;;;;;;;16.45;10.80;;;;;;;-3.32;76.58;91089.28;5091235;28;20471;-77
2021/12/21 07:37:27;;;;;;;20.88;11.90;;;;;;;-3.24;74.95;91101.22;5091080;28;20085;-77
2021/12/21 07:39:53;;;;;;;16.55;10.32;;;;;;;-3.11;74.71;91106.22;5091107;28;20032;-77
2021/12/21 07:42:20;;;;;;;10.63;7.20;;;;;;;-2.93;74.56;91115.78;5089925;28;20062;-76
2021/12/21 07:44:46;;;;;;;5.70;3.97;;;;;;;-2.91;74.04;91111.94;5091134;28;20056;-77
2021/12/21 07:47:12;;;;;;;12.00;6.65;;;;;;;-2.83;74.65;91111.63;5091019;28;20444;-77
2021/12/21 07:49:37;;;;;;;10.85;6.15;;;;;;;-2.58;74.07;91093.19;5090417;28;20100;-77
2021/12/21 07:52:07;;;;;;;6.18;3.50;;;;;;;-2.88;75.91;91119.28;5089719;28;20114;-77
2021/12/21 07:54:32;;;;;;;7.43;4.47;;;;;;;-2.87;77.24;91117.47;5091032;28;20024;-77
2021/12/21 07:56:58;;;;;;;4.38;2.90;;;;;;;-3.24;81.18;91106.41;5090980;28;20379;-77
2021/12/21 07:59:24;;;;;;;4.70;3.30;;;;;;;-3.16;83.65;91119.09;5090947;28;20032;-77
2021/12/21 08:01:49;;;;;;;7.55;4.93;;;;;;;-3.02;84.72;91120.50;5089637;28;20409;-77
2021/12/21 08:04:15;;;;;;;6.82;4.50;;;;;;;-3.26;83.67;91119.63;5090883;28;20024;-77
2021/12/21 08:06:44;;;;;;;16.38;6.43;;;;;;;-3.35;85.15;91111.34;5090807;28;20111;-76
2021/12/21 08:09:10;;;;;;;7.20;3.45;;;;;;;-3.15;85.71;91131.13;5090719;28;20443;-77
2021/12/21 08:14:03;;;;;;;4.13;3.13;;;;;;;-3.20;81.96;91143.97;5090890;28;20063;-76
2021/12/21 08:16:29;;;;;;;5.43;3.58;;;;;;;-3.35;82.00;91133.97;5090875;28;20035;-77
2021/12/21 08:18:54;;;;;;;6.18;3.85;;;;;;;-3.48;83.34;91132.31;5090859;28;20404;-77
2021/12/21 08:21:24;;;;;;;4.85;3.50;;;;;;;-3.43;81.83;91136.88;5090863;28;20036;-77
2021/12/21 08:23:49;;;;;;;5.30;3.95;;;;;;;-3.37;81.79;91139.38;5090913;28;20017;-76
2021/12/21 08:26:15;;;;;;;2.50;2.22;;;;;;;-3.33;80.75;91145.72;5090742;28;20036;-77
2021/12/21 08:28:41;;;;;;;3.33;3.03;;;;;;;-3.37;81.19;91144.59;5090536;28;20035;-76
2021/12/21 08:31:10;;;;;;;7.70;5.68;;;;;;;-3.50;81.75;91142.16;5090691;28;20032;-76
2021/12/21 08:33:37;;;;;;;6.82;4.10;;;;;;;-3.48;82.76;91147.91;5090620;28;20027;-76
2021/12/21 08:36:04;;;;;;;7.07;4.03;;;;;;;-3.43;83.88;91144.69;5090630;28;20127;-76
2021/12/21 08:38:31;;;;;;;5.78;4.03;;;;;;;-3.18;80.28;91160.16;5090507;28;20028;-77
2021/12/21 08:40:59;;;;;;;2.30;2.05;;;;;;;-3.03;78.50;91155.34;5091933;28;20374;-77
2021/12/21 08:43:28;;;;;;;3.38;2.90;;;;;;;-2.61;76.15;91155.34;5094649;28;20110;-76
2021/12/21 08:45:55;;;;;;;3.45;3.00;;;;;;;-2.73;76.89;91161.31;5094228;28;20409;-77
2021/12/21 08:48:20;;;;;;;4.55;3.28;;;;;;;-2.50;76.50;91165.00;5094134;28;20103;-76
2021/12/21 08:50:48;;;;;;;5.25;3.40;;;;;;;-1.26;73.30;91165.59;5094079;28;20115;-77
2021/12/21 08:53:14;;;;;;;3.70;3.08;;;;;;;-0.28;67.60;91163.63;5094186;28;20131;-77
2021/12/21 08:55:42;;;;;;;3.42;2.63;;;;;;;-1.14;69.03;91158.47;5092804;28;20383;-77
2021/12/21 08:58:08;;;;;;;4.28;3.67;;;;;;;-1.85;71.13;91151.84;5094097;28;20036;-77
2021/12/21 09:00:33;;;;;;;6.47;5.03;;;;;;;-2.23;72.91;91153.09;5094017;28;20039;-77
2021/12/21 09:02:59;;;;;;;18.00;8.63;;;;;;;-0.35;67.90;91154.13;5093907;28;20039;-77
2021/12/21 09:05:28;;;;;;;20.85;9.13;;;;;;;-1.17;69.26;91160.78;5092524;28;20119;-77
2021/12/21 09:07:53;;;;;;;88.72;32.65;;;;;;;-1.22;69.70;91156.25;5093822;28;20031;-77
2021/12/21 09:10:21;;;;;;;35.00;14.32;;;;;;;1.80;64.45;91160.91;5093378;28;20043;-77
2021/12/21 09:12:47;;;;;;;19.02;10.38;;;;;;;3.36;57.59;91151.53;5093710;28;20077;-77
2021/12/21 09:15:14;;;;;;;20.88;11.07;;;;;;;4.90;55.27;91153.09;5093701;28;20515;-77
2021/12/21 09:17:41;;;;;;;12.85;8.55;;;;;;;4.96;52.78;91149.38;5093682;28;20555;-77
2021/12/21 09:20:08;;;;;;;8.07;4.85;;;;;;;5.04;50.30;91149.59;5093846;28;20028;-77
2021/12/21 09:22:34;;;;;;;4.97;3.55;;;;;;;1.99;56.34;91140.34;5093961;28;20110;-77
2021/12/21 09:24:59;;;;;;;7.47;5.93;;;;;;;2.25;55.08;91138.69;5093772;28;20172;-77
2021/12/21 09:27:26;;;;;;;4.07;3.20;;;;;;;0.95;58.98;91138.06;5093451;28;20028;-77
2021/12/21 09:29:52;;;;;;;7.10;4.10;;;;;;;3.43;54.52;91135.50;5093322;28;20035;-77
2021/12/21 09:32:18;;;;;;;4.88;3.03;;;;;;;3.12;52.77;91140.66;5093442;28;20028;-77
2021/12/21 09:34:46;;;;;;;3.78;3.30;;;;;;;4.15;51.17;91137.16;5093291;28;20039;-77
2021/12/21 09:37:16;;;;;;;3.83;2.90;;;;;;;5.83;48.39;91139.94;5093177;28;20078;-77
2021/12/21 09:39:44;;;;;;;3.53;2.97;;;;;;;5.01;48.57;91133.53;5093066;28;20505;-77
2021/12/21 09:42:14;;;;;;;3.13;2.38;;;;;;;5.23;48.29;91135.81;5093055;28;20103;-77
2021/12/21 09:44:40;;;;;;;3.25;2.85;;;;;;;6.05;46.25;91131.66;5093198;28;20032;-77
2021/12/21 09:47:09;;;;;;;37.30;13.15;;;;;;;3.71;49.94;91148.16;5093038;28;20028;-77
2021/12/21 09:49:35;;;;;;;16.10;8.23;;;;;;;4.40;50.73;91137.09;5092891;28;20048;-77
2021/12/21 09:52:00;;;;;;;7.22;4.55;;;;;;;4.66;49.03;91147.59;5092618;28;20016;-77
2021/12/21 09:54:26;;;;;;;4.75;3.50;;;;;;;5.26;48.49;91145.81;5092959;28;20028;-76
2021/12/21 09:56:52;;;;;;;4.80;3.63;;;;;;;4.56;49.53;91147.59;5093007;28;20091;-77
2021/12/21 09:59:17;;;;;;;3.65;2.55;;;;;;;3.13;51.88;91139.63;5092731;28;20031;-77
2021/12/21 10:01:43;;;;;;;5.35;2.95;;;;;;;2.09;53.52;91153.53;5092793;28;20053;-77
2021/12/21 10:04:08;;;;;;;15.73;8.70;;;;;;;0.96;58.02;91140.47;5092718;28;20032;-77
2021/12/21 10:06:49;;;;;;;17.08;8.57;;;;;;;2.04;56.42;91138.53;5092565;28;20020;-70
2021/12/21 10:09:20;;;;;;;16.02;8.32;;;;;;;1.62;56.80;91148.19;5092463;28;20032;-71
2021/12/21 10:11:48;;;;;;;4.80;3.10;;;;;;;0.17;59.64;91147.84;5092479;28;20097;-71
2021/12/21 10:14:18;;;;;;;3.80;3.20;;;;;;;2.10;55.37;91148.03;5092376;28;20067;-70
2021/12/21 10:16:47;;;;;;;3.55;2.63;;;;;;;1.87;53.85;91143.13;5092754;28;20107;-70
2021/12/21 10:19:23;;;;;;;3.92;3.40;;;;;;;1.11;56.68;91147.69;5091037;28;20035;-71
2021/12/21 10:21:49;;;;;;;9.32;2.70;;;;;;;-0.75;63.60;91148.22;5092325;28;20038;-70
2021/12/21 10:24:26;;;;;;;6.00;3.92;;;;;;;-1.18;65.63;91151.34;5092280;28;20099;-70
2021/12/21 10:26:54;;;;;;;3.33;2.67;;;;;;;-1.27;67.10;91143.09;5092277;28;20028;-70
2021/12/21 10:29:19;;;;;;;4.90;3.60;;;;;;;-1.21;68.71;91139.56;5092025;28;20070;-70
2021/12/21 10:31:48;;;;;;;4.15;3.40;;;;;;;-0.99;69.67;91131.88;5092184;28;20024;-70
2021/12/21 10:34:16;;;;;;;3.63;2.92;;;;;;;-0.79;69.73;91134.84;5092612;28;20036;-70
2021/12/21 10:36:51;;;;;;;3.00;2.60;;;;;;;-1.33;70.57;91138.81;5092150;28;20031;-70
2021/12/21 10:39:28;;;;;;;4.25;3.17;;;;;;;-1.60;73.75;91144.53;5091862;28;20053;-70
2021/12/21 10:41:59;;;;;;;8.48;5.75;;;;;;;-1.85;76.84;91142.22;5091888;28;20113;-71
2021/12/21 10:44:26;;;;;;;6.57;5.10;;;;;;;-1.99;77.00;91140.88;5091981;28;20524;-71
2021/12/21 10:46:53;;;;;;;8.48;5.22;;;;;;;-2.11;77.83;91140.88;5091925;28;20020;-70
2021/12/21 10:49:25;;;;;;;7.70;5.30;;;;;;;-2.09;78.35;91135.44;5091662;28;20055;-70
2021/12/21 10:52:13;;;;;;;9.10;5.50;;;;;;;-2.02;81.08;91140.53;5091856;28;20027;-70
2021/12/21 10:54:48;;;;;;;4.82;3.58;;;;;;;-1.95;82.34;91141.19;5092093;28;20036;-70
2021/12/21 10:57:14;;;;;;;5.22;3.60;;;;;;;-1.99;81.21;91140.06;5091746;28;20402;-70
2021/12/21 10:59:42;;;;;;;5.80;3.33;;;;;;;-2.08;79.66;91146.66;5091783;28;20039;-71
2021/12/21 11:02:10;;;;;;;52.47;27.05;;;;;;;-2.19;78.76;91143.84;5091657;28;20031;-70
2021/12/21 11:04:41;;;;;;;9.75;5.25;;;;;;;-1.93;76.49;91145.16;5091038;28;20039;-70
2021/12/21 11:07:25;;;;;;;6.80;4.93;;;;;;;-1.65;74.03;91139.22;5091469;28;20081;-71
2021/12/21 11:10:20;;;;;;;5.03;3.53;;;;;;;0.92;67.33;91128.88;5091266;28;20035;-69
2021/12/21 11:12:48;;;;;;;3.25;2.83;;;;;;;2.49;60.46;91131.19;5091221;28;20020;-71
2021/12/21 11:15:19;;;;;;;2.22;2.03;;;;;;;3.51;53.88;91137.63;5091629;28;20212;-71
2021/12/21 11:17:45;;;;;;;4.03;3.60;;;;;;;4.63;52.19;91134.97;5091654;28;20028;-71
2021/12/21 11:20:13;;;;;;;3.25;2.25;;;;;;;5.09;50.70;91127.72;5091312;28;20042;-70
2021/12/21 11:22:41;;;;;;;2.45;2.22;;;;;;;5.27;50.65;91127.09;5091147;28;20027;-71
2021/12/21 11:25:08;;;;;;;3.13;2.30;;;;;;;4.67;49.99;91130.72;5091209;28;20032;-70
2021/12/21 11:27:36;;;;;;;2.85;2.47;;;;;;;5.11;47.87;91122.94;5091255;28;20120;-70
2021/12/21 11:30:07;;;;;;;3.63;2.20;;;;;;;4.89;49.37;91131.22;5091129;28;20062;-70
2021/12/21 11:32:38;;;;;;;2.92;2.40;;;;;;;3.76;50.15;91132.38;5091093;28;20032;-70
2021/12/21 11:37:35;;;;;;;3.75;3.00;;;;;;;0.10;59.13;91132.31;5091205;28;20038;-70
2021/12/21 11:40:00;;;;;;;3.55;3.25;;;;;;;-0.10;61.19;91126.78;5090983;28;20028;-70
2021/12/21 11:42:38;;;;;;;3.08;2.65;;;;;;;3.06;54.82;91120.69;5091300;28;20024;-70
2021/12/21 11:45:15;;;;;;;4.85;3.60;;;;;;;5.04;51.40;91120.59;5090926;28;20046;-70
2021/12/21 11:47:53;;;;;;;6.10;4.10;;;;;;;5.78;49.76;91121.53;5090977;28;20555;-70
2021/12/21 11:50:19;;;;;;;10.15;3.85;;;;;;;5.46;47.72;91121.19;5090908;28;20051;-70
2021/12/21 11:52:47;;;;;;;8.25;5.03;;;;;;;5.39;47.47;91118.88;5090849;28;20078;-70
2021/12/21 11:55:14;;;;;;;3.50;2.67;;;;;;;4.03;48.33;91116.34;5090772;28;20071;-70
2021/12/21 11:57:46;;;;;;;3.25;2.95;;;;;;;4.62;48.25;91125.50;5090826;28;20024;-70
2021/12/21 12:00:16;;;;;;;5.40;4.18;;;;;;;3.37;51.25;91111.03;5090911;28;20031;-70
2021/12/21 12:02:43;;;;;;;7.85;4.18;;;;;;;2.07;54.35;91119.69;5090790;28;20024;-70
2021/12/21 12:05:17;;;;;;;7.05;4.47;;;;;;;0.78;57.59;91130.28;5090706;28;20040;-70
2021/12/21 12:07:42;;;;;;;13.93;7.50;;;;;;;-0.29;61.40;91134.09;5090815;28;20035;-70
2021/12/21 12:10:21;;;;;;;6.30;4.20;;;;;;;-0.47;61.99;91121.25;5090674;28;20016;-70
2021/12/21 12:12:46;;;;;;;3.78;3.35;;;;;;;-0.95;62.91;91130.38;5090765;28;20024;-70
2021/12/21 12:15:15;;;;;;;4.03;3.10;;;;;;;-1.38;64.80;91131.69;5092606;28;20035;-72
2021/12/21 12:17:50;;;;;;;3.83;3.20;;;;;;;-1.74;66.21;91130.16;5094817;28;20024;-71
2021/12/21 12:20:25;;;;;;;5.60;3.45;;;;;;;-1.68;66.75;91131.09;5094688;28;20028;-70
2021/12/21 12:23:05;;;;;;;3.88;3.10;;;;;;;-0.77;63.31;91132.00;5093376;28;20038;-71
2021/12/21 12:25:31;;;;;;;6.63;4.53;;;;;;;0.28;60.74;91139.88;5094461;28;20485;-71
2021/12/21 12:27:56;;;;;;;6.05;3.55;;;;;;;-0.31;61.75;91134.34;5094495;28;20043;-71
2021/12/21 12:30:27;;;;;;;6.25;4.00;;;;;;;-0.33;62.83;91152.06;5094676;28;20035;-71
2021/12/21 12:33:00;;;;;;;6.03;4.40;;;;;;;-0.54;63.75;91152.75;5094546;28;20031;-71
2021/12/21 12:35:29;;;;;;;8.10;5.70;;;;;;;-0.85;64.52;91161.88;5094435;28;20024;-71
2021/12/21 12:38:15;;;;;;;7.78;4.55;;;;;;;-1.05;66.92;91166.75;5094359;28;20039;-71
2021/12/21 12:40:42;;;;;;;5.53;2.83;;;;;;;-1.00;65.91;91175.47;5094383;28;20031;-72
2021/12/21 12:43:11;;;;;;;4.78;3.03;;;;;;;-1.29;66.49;91166.81;5094272;28;20028;-72
2021/12/21 12:45:50;;;;;;;4.40;3.47;;;;;;;-1.07;67.58;91174.81;5094136;28;20027;-72
2021/12/21 12:48:21;;;;;;;7.10;4.55;;;;;;;-0.88;68.28;91172.03;5094121;28;20035;-72
2021/12/21 12:50:47;;;;;;;6.20;3.65;;;;;;;-1.34;68.39;91173.75;5093918;28;20051;-72